Time,TemperatureF,DewpointF,PressureIn,WindDirection,WindDirectionDegrees,WindSpeedMPH,WindSpeedGustMPH,Humidity,HourlyPrecipIn,Conditions,Clouds,dailyrainin,SolarRadiationWatts/m^2,SoftwareType,DateUTC
2013-07-04 00:00:00,67.0,58.0,-100.00,South,170,2.0,-999.0,72,0.00,,,0.00,0.000000,,2013-07-04 05:00:00,
2013-07-04 00:43:00,67.0,58.0,-100.00,South,170,2.0,-999.0,72,0.00,,,0.00,0.000000,,2013-07-04 05:43:00,
2013-07-04 00:52:00,67.0,58.0,-100.00,South,170,2.0,-999.0,72,0.00,,,0.00,0.000000,,2013-07-04 05:52:00,
2013-07-04 01:00:00,67.0,57.0,-100.00,South,169,2.0,-999.0,69,0.00,,,0.00,0.000000,,2013-07-04 06:00:00,
2013-07-04 01:43:00,67.0,57.0,-100.00,South,169,2.0,-999.0,69,0.00,,,0.00,0.000000,,2013-07-04 06:43:00,
2013-07-04 01:53:00,67.0,57.0,-100.00,South,169,2.0,-999.0,69,0.00,,,0.00,0.000000,,2013-07-04 06:53:00,
2013-07-04 02:00:00,68.0,56.0,-100.00,South,187,1.0,-999.0,66,0.00,,,0.00,0.000000,,2013-07-04 07:00:00,
2013-07-04 02:43:00,68.0,56.0,-100.00,South,187,1.0,-999.0,66,0.00,,,0.00,0.000000,,2013-07-04 07:43:00,
2013-07-04 02:52:00,68.0,56.0,-100.00,South,187,1.0,-999.0,66,0.00,,,0.00,0.000000,,2013-07-04 07:52:00,
2013-07-04 03:00:00,68.0,57.0,-100.00,South,182,1.0,-999.0,68,0.00,,,0.00,0.000000,,2013-07-04 08:00:00,
2013-07-04 03:43:00,68.0,57.0,-100.00,South,182,1.0,-999.0,68,0.00,,,0.00,0.000000,,2013-07-04 08:43:00,
2013-07-04 03:53:00,68.0,57.0,-100.00,South,182,1.0,-999.0,68,0.00,,,0.00,0.000000,,2013-07-04 08:53:00,
2013-07-04 05:00:00,66.0,57.0,-100.00,South,184,1.0,-999.0,72,0.00,,,0.00,1.000000,,2013-07-04 10:00:00,
2013-07-04 05:43:00,66.0,57.0,-100.00,South,184,1.0,-999.0,72,0.00,,,0.00,1.000000,,2013-07-04 10:43:00,
2013-07-04 05:53:00,66.0,57.0,-100.00,South,184,1.0,-999.0,72,0.00,,,0.00,1.000000,,2013-07-04 10:53:00,
2013-07-04 06:00:00,66.0,57.0,-100.00,SSE,161,0.0,-999.0,73,0.00,,,0.00,0.000000,,2013-07-04 11:00:00,
2013-07-04 06:43:00,66.0,57.0,-100.00,SSE,161,0.0,-999.0,73,0.00,,,0.00,0.000000,,2013-07-04 11:43:00,
2013-07-04 06:53:00,66.0,57.0,-100.00,SSE,161,0.0,-999.0,73,0.00,,,0.00,0.000000,,2013-07-04 11:53:00,
2013-07-04 07:00:00,65.0,58.0,-100.00,SSE,165,1.0,-999.0,78,0.00,,,0.00,23.000000,,2013-07-04 12:00:00,
2013-07-04 07:43:00,65.0,58.0,-100.00,SSE,165,1.0,-999.0,78,0.00,,,0.00,23.000000,,2013-07-04 12:43:00,
2013-07-04 07:52:00,65.0,58.0,-100.00,SSE,165,1.0,-999.0,78,0.00,,,0.00,23.000000,,2013-07-04 12:52:00,
2013-07-04 08:00:00,69.0,58.0,-100.00,SSE,150,1.0,-999.0,70,0.00,,,0.00,185.000000,,2013-07-04 13:00:00,
2013-07-04 08:43:00,69.0,58.0,-100.00,SSE,150,1.0,-999.0,70,0.00,,,0.00,185.000000,,2013-07-04 13:43:00,
2013-07-04 08:53:00,69.0,58.0,-100.00,SSE,150,1.0,-999.0,70,0.00,,,0.00,185.000000,,2013-07-04 13:53:00,
2013-07-04 09:00:00,76.0,58.0,-100.00,NW,319,1.0,-999.0,54,0.00,,,0.00,401.000000,,2013-07-04 14:00:00,
2013-07-04 09:43:00,76.0,58.0,-100.00,NW,319,1.0,-999.0,54,0.00,,,0.00,401.000000,,2013-07-04 14:43:00,
2013-07-04 09:53:00,76.0,58.0,-100.00,NW,319,1.0,-999.0,54,0.00,,,0.00,401.000000,,2013-07-04 14:53:00,
2013-07-04 10:00:00,79.0,58.0,-100.00,South,174,1.0,-999.0,50,0.00,,,0.00,592.000000,,2013-07-04 15:00:00,
2013-07-04 10:43:00,79.0,58.0,-100.00,South,174,1.0,-999.0,50,0.00,,,0.00,592.000000,,2013-07-04 15:43:00,
2013-07-04 10:53:00,79.0,58.0,-100.00,South,174,1.0,-999.0,50,0.00,,,0.00,592.000000,,2013-07-04 15:53:00,
2013-07-04 11:00:00,81.0,58.0,-100.00,South,172,1.0,-999.0,45,0.00,,,0.00,740.000000,,2013-07-04 16:00:00,
2013-07-04 11:43:00,81.0,58.0,-100.00,South,172,1.0,-999.0,45,0.00,,,0.00,740.000000,,2013-07-04 16:43:00,
2013-07-04 11:52:00,81.0,58.0,-100.00,South,172,1.0,-999.0,45,0.00,,,0.00,740.000000,,2013-07-04 16:52:00,
2013-07-04 14:00:00,86.0,55.0,-100.00,SSW,201,1.0,-999.0,36,-99.99,,,0.00,964.000000,,2013-07-04 19:00:00,
2013-07-04 14:43:00,86.0,55.0,-100.00,SSW,201,1.0,-999.0,36,-99.99,,,0.00,964.000000,,2013-07-04 19:43:00,
2013-07-04 14:53:00,86.0,55.0,-100.00,SSW,201,1.0,-999.0,36,-99.99,,,0.00,964.000000,,2013-07-04 19:53:00,
2013-07-04 15:00:00,86.0,56.0,-100.00,NNW,332,0.0,-999.0,36,0.00,,,0.00,779.000000,,2013-07-04 20:00:00,
2013-07-04 15:42:00,86.0,56.0,-100.00,NNW,332,0.0,-999.0,36,0.00,,,0.00,779.000000,,2013-07-04 20:42:00,
2013-07-04 15:53:00,86.0,56.0,-100.00,NNW,332,0.0,-999.0,36,0.00,,,0.00,779.000000,,2013-07-04 20:53:00,
2013-07-04 16:00:00,87.0,55.0,-100.00,NW,317,1.0,-999.0,34,0.00,,,0.00,772.000000,,2013-07-04 21:00:00,
2013-07-04 16:43:00,87.0,55.0,-100.00,NW,317,1.0,-999.0,34,0.00,,,0.00,772.000000,,2013-07-04 21:43:00,
2013-07-04 16:53:00,87.0,55.0,-100.00,NW,317,1.0,-999.0,34,0.00,,,0.00,772.000000,,2013-07-04 21:53:00,
2013-07-04 17:00:00,87.0,54.0,-100.00,SSW,208,1.0,-999.0,32,0.00,,,0.00,518.000000,,2013-07-04 22:00:00,
2013-07-04 17:43:00,87.0,54.0,-100.00,SSW,208,1.0,-999.0,32,0.00,,,0.00,518.000000,,2013-07-04 22:43:00,
2013-07-04 17:52:00,87.0,54.0,-100.00,SSW,208,1.0,-999.0,32,0.00,,,0.00,518.000000,,2013-07-04 22:52:00,
2013-07-04 20:00:00,82.0,56.0,-100.00,SSW,203,0.0,-999.0,41,-99.99,,,0.00,47.000000,,2013-07-05 01:00:00,
2013-07-04 21:00:00,77.0,59.0,-100.00,South,175,1.0,-999.0,55,0.00,,,0.00,1.000000,,2013-07-05 02:00:00,
2013-07-04 21:43:00,77.0,59.0,-100.00,South,175,1.0,-999.0,55,0.00,,,0.00,1.000000,,2013-07-05 02:43:00,
2013-07-04 21:52:00,77.0,59.0,-100.00,South,175,1.0,-999.0,55,0.00,,,0.00,1.000000,,2013-07-05 02:52:00,
2013-07-04 22:00:00,74.0,60.0,-100.00,SSE,159,1.0,-999.0,62,0.00,,,0.00,1.000000,,2013-07-05 03:00:00,
2013-07-04 22:32:00,74.0,60.0,-100.00,SSE,159,1.0,-999.0,62,0.00,,,0.00,1.000000,,2013-07-05 03:32:00,
2013-07-04 22:42:00,74.0,60.0,-100.00,SSE,159,1.0,-999.0,62,0.00,,,0.00,1.000000,,2013-07-05 03:42:00,
2013-07-04 22:52:00,74.0,60.0,-100.00,SSE,159,1.0,-999.0,62,0.00,,,0.00,1.000000,,2013-07-05 03:52:00,
2013-07-04 23:00:00,72.0,59.0,-100.00,SSE,163,1.0,-999.0,64,0.00,,,0.00,0.000000,,2013-07-05 04:00:00,
2013-07-04 23:43:00,72.0,59.0,-100.00,SSE,163,1.0,-999.0,64,0.00,,,0.00,0.000000,,2013-07-05 04:43:00,
2013-07-04 23:53:00,72.0,59.0,-100.00,SSE,163,1.0,-999.0,64,0.00,,,0.00,0.000000,,2013-07-05 04:53:00,